sensor_id;sensor_type;location;lat;lon;timestamp;P1;durP1;ratioP1;P2;durP2;ratioP2
16391;SDS011;8305;-33.882;151.134;2023-05-23T00:02:08;6.32;;;2.45;;
16391;SDS011;8305;-33.882;151.134;2023-05-23T00:04:40;8.88;;;2.70;;
16391;SDS011;8305;-33.882;151.134;2023-05-23T00:07:13;6.60;;;2.65;;
16391;SDS011;8305;-33.882;151.134;2023-05-23T00:09:44;8.25;;;2.22;;
16391;SDS011;8305;-33.882;151.134;2023-05-23T00:12:15;7.45;;;2.50;;
16391;SDS011;8305;-33.882;151.134;2023-05-23T00:14:47;7.28;;;2.40;;
16391;SDS011;8305;-33.882;151.134;2023-05-23T00:17:18;7.95;;;3.25;;
16391;SDS011;8305;-33.882;151.134;2023-05-23T00:19:50;8.30;;;2.40;;
16391;SDS011;8305;-33.882;151.134;2023-05-23T00:22:24;6.55;;;2.28;;
16391;SDS011;8305;-33.882;151.134;2023-05-23T00:24:55;6.40;;;2.22;;
16391;SDS011;8305;-33.882;151.134;2023-05-23T00:27:27;6.55;;;2.30;;
16391;SDS011;8305;-33.882;151.134;2023-05-23T00:29:58;9.43;;;2.53;;
16391;SDS011;8305;-33.882;151.134;2023-05-23T00:32:30;9.13;;;2.40;;
16391;SDS011;8305;-33.882;151.134;2023-05-23T00:35:01;6.95;;;2.20;;
16391;SDS011;8305;-33.882;151.134;2023-05-23T00:37:34;4.68;;;2.03;;
16391;SDS011;8305;-33.882;151.134;2023-05-23T00:40:10;8.30;;;2.35;;
16391;SDS011;8305;-33.882;151.134;2023-05-23T00:42:42;8.60;;;2.00;;
16391;SDS011;8305;-33.882;151.134;2023-05-23T00:45:13;8.65;;;2.72;;
16391;SDS011;8305;-33.882;151.134;2023-05-23T00:47:53;5.05;;;2.10;;
16391;SDS011;8305;-33.882;151.134;2023-05-23T00:50:24;7.00;;;2.28;;
16391;SDS011;8305;-33.882;151.134;2023-05-23T00:52:58;7.40;;;2.03;;
16391;SDS011;8305;-33.882;151.134;2023-05-23T00:55:30;6.72;;;1.73;;
16391;SDS011;8305;-33.882;151.134;2023-05-23T00:58:02;6.55;;;2.10;;
16391;SDS011;8305;-33.882;151.134;2023-05-23T01:00:33;5.88;;;2.03;;
16391;SDS011;8305;-33.882;151.134;2023-05-23T01:03:04;5.05;;;2.00;;
16391;SDS011;8305;-33.882;151.134;2023-05-23T01:05:41;8.65;;;2.10;;
16391;SDS011;8305;-33.882;151.134;2023-05-23T01:08:18;12.60;;;6.50;;
16391;SDS011;8305;-33.882;151.134;2023-05-23T01:10:50;12.05;;;3.15;;
16391;SDS011;8305;-33.882;151.134;2023-05-23T01:13:22;9.73;;;3.90;;
16391;SDS011;8305;-33.882;151.134;2023-05-23T01:15:59;7.70;;;2.60;;
16391;SDS011;8305;-33.882;151.134;2023-05-23T01:18:36;5.30;;;2.05;;
16391;SDS011;8305;-33.882;151.134;2023-05-23T01:21:10;11.93;;;2.33;;
16391;SDS011;8305;-33.882;151.134;2023-05-23T01:24:06;8.10;;;1.95;;
16391;SDS011;8305;-33.882;151.134;2023-05-23T01:27:04;5.55;;;2.35;;
16391;SDS011;8305;-33.882;151.134;2023-05-23T01:29:50;6.90;;;2.13;;
16391;SDS011;8305;-33.882;151.134;2023-05-23T01:32:24;5.80;;;1.70;;
16391;SDS011;8305;-33.882;151.134;2023-05-23T01:34:57;5.78;;;2.30;;
16391;SDS011;8305;-33.882;151.134;2023-05-23T01:37:29;5.25;;;1.75;;
16391;SDS011;8305;-33.882;151.134;2023-05-23T01:40:00;8.00;;;2.00;;
16391;SDS011;8305;-33.882;151.134;2023-05-23T01:42:32;9.38;;;1.80;;
16391;SDS011;8305;-33.882;151.134;2023-05-23T01:45:05;7.30;;;1.85;;
16391;SDS011;8305;-33.882;151.134;2023-05-23T01:47:37;7.93;;;1.77;;
16391;SDS011;8305;-33.882;151.134;2023-05-23T01:50:10;4.05;;;1.80;;
16391;SDS011;8305;-33.882;151.134;2023-05-23T01:52:42;6.18;;;1.50;;
16391;SDS011;8305;-33.882;151.134;2023-05-23T01:55:15;6.03;;;1.63;;
16391;SDS011;8305;-33.882;151.134;2023-05-23T01:57:48;7.88;;;2.50;;
16391;SDS011;8305;-33.882;151.134;2023-05-23T02:00:23;6.38;;;2.40;;
16391;SDS011;8305;-33.882;151.134;2023-05-23T02:02:55;32.20;;;20.90;;
16391;SDS011;8305;-33.882;151.134;2023-05-23T02:05:26;10.02;;;2.88;;
16391;SDS011;8305;-33.882;151.134;2023-05-23T02:07:57;9.65;;;1.60;;
16391;SDS011;8305;-33.882;151.134;2023-05-23T02:10:28;7.20;;;2.42;;
16391;SDS011;8305;-33.882;151.134;2023-05-23T02:12:59;8.10;;;1.80;;
16391;SDS011;8305;-33.882;151.134;2023-05-23T02:15:32;5.32;;;1.40;;
16391;SDS011;8305;-33.882;151.134;2023-05-23T02:18:04;4.30;;;1.40;;
16391;SDS011;8305;-33.882;151.134;2023-05-23T02:20:35;6.53;;;2.00;;
16391;SDS011;8305;-33.882;151.134;2023-05-23T02:23:06;4.53;;;1.65;;
16391;SDS011;8305;-33.882;151.134;2023-05-23T02:25:37;5.88;;;1.70;;
16391;SDS011;8305;-33.882;151.134;2023-05-23T02:28:08;5.93;;;1.60;;
16391;SDS011;8305;-33.882;151.134;2023-05-23T02:30:41;7.13;;;1.70;;
16391;SDS011;8305;-33.882;151.134;2023-05-23T02:33:12;4.60;;;1.40;;
16391;SDS011;8305;-33.882;151.134;2023-05-23T02:35:44;7.53;;;1.50;;
16391;SDS011;8305;-33.882;151.134;2023-05-23T02:38:16;5.15;;;1.73;;
16391;SDS011;8305;-33.882;151.134;2023-05-23T02:40:47;5.35;;;1.65;;
16391;SDS011;8305;-33.882;151.134;2023-05-23T02:43:18;6.30;;;1.50;;
16391;SDS011;8305;-33.882;151.134;2023-05-23T02:45:52;4.32;;;1.83;;
16391;SDS011;8305;-33.882;151.134;2023-05-23T02:48:23;16.00;;;6.60;;
16391;SDS011;8305;-33.882;151.134;2023-05-23T02:50:54;9.85;;;6.88;;
16391;SDS011;8305;-33.882;151.134;2023-05-23T02:53:25;5.53;;;1.60;;
16391;SDS011;8305;-33.882;151.134;2023-05-23T02:55:56;6.68;;;2.25;;
16391;SDS011;8305;-33.882;151.134;2023-05-23T02:58:27;3.50;;;1.58;;
16391;SDS011;8305;-33.882;151.134;2023-05-23T03:01:03;5.03;;;1.35;;
16391;SDS011;8305;-33.882;151.134;2023-05-23T03:03:34;7.78;;;1.80;;
16391;SDS011;8305;-33.882;151.134;2023-05-23T03:06:05;5.97;;;2.00;;
16391;SDS011;8305;-33.882;151.134;2023-05-23T03:08:39;10.05;;;2.38;;
16391;SDS011;8305;-33.882;151.134;2023-05-23T03:11:11;6.68;;;1.65;;
16391;SDS011;8305;-33.882;151.134;2023-05-23T03:13:42;6.78;;;1.70;;
16391;SDS011;8305;-33.882;151.134;2023-05-23T03:16:15;3.78;;;1.42;;
16391;SDS011;8305;-33.882;151.134;2023-05-23T03:18:46;4.95;;;1.45;;
16391;SDS011;8305;-33.882;151.134;2023-05-23T03:21:17;4.97;;;1.52;;
16391;SDS011;8305;-33.882;151.134;2023-05-23T03:23:48;4.07;;;1.40;;
16391;SDS011;8305;-33.882;151.134;2023-05-23T03:26:19;7.93;;;1.60;;
16391;SDS011;8305;-33.882;151.134;2023-05-23T03:28:50;4.85;;;1.40;;
16391;SDS011;8305;-33.882;151.134;2023-05-23T03:31:23;4.35;;;1.30;;
16391;SDS011;8305;-33.882;151.134;2023-05-23T03:33:54;4.45;;;1.60;;
16391;SDS011;8305;-33.882;151.134;2023-05-23T03:36:25;6.97;;;1.63;;
16391;SDS011;8305;-33.882;151.134;2023-05-23T03:38:58;6.57;;;1.70;;
16391;SDS011;8305;-33.882;151.134;2023-05-23T03:41:29;5.43;;;1.70;;
16391;SDS011;8305;-33.882;151.134;2023-05-23T03:44:00;5.68;;;1.50;;
16391;SDS011;8305;-33.882;151.134;2023-05-23T03:46:33;6.03;;;1.67;;
16391;SDS011;8305;-33.882;151.134;2023-05-23T03:49:05;6.85;;;2.30;;
16391;SDS011;8305;-33.882;151.134;2023-05-23T03:51:36;5.47;;;1.70;;
16391;SDS011;8305;-33.882;151.134;2023-05-23T03:54:07;4.00;;;1.40;;
16391;SDS011;8305;-33.882;151.134;2023-05-23T03:56:38;6.07;;;1.58;;
16391;SDS011;8305;-33.882;151.134;2023-05-23T03:59:09;5.10;;;1.27;;
16391;SDS011;8305;-33.882;151.134;2023-05-23T04:01:42;4.80;;;1.10;;
16391;SDS011;8305;-33.882;151.134;2023-05-23T04:04:13;7.47;;;1.70;;
16391;SDS011;8305;-33.882;151.134;2023-05-23T04:06:46;5.82;;;1.60;;
16391;SDS011;8305;-33.882;151.134;2023-05-23T04:09:17;5.43;;;1.35;;
16391;SDS011;8305;-33.882;151.134;2023-05-23T04:11:48;4.80;;;1.23;;
16391;SDS011;8305;-33.882;151.134;2023-05-23T04:14:20;5.30;;;1.48;;
16391;SDS011;8305;-33.882;151.134;2023-05-23T04:16:53;3.70;;;1.30;;
16391;SDS011;8305;-33.882;151.134;2023-05-23T04:19:26;2.78;;;1.30;;
16391;SDS011;8305;-33.882;151.134;2023-05-23T04:21:57;3.55;;;1.40;;
16391;SDS011;8305;-33.882;151.134;2023-05-23T04:24:28;4.70;;;1.20;;
16391;SDS011;8305;-33.882;151.134;2023-05-23T04:26:59;5.93;;;1.27;;
16391;SDS011;8305;-33.882;151.134;2023-05-23T04:29:30;7.55;;;1.50;;
16391;SDS011;8305;-33.882;151.134;2023-05-23T04:32:03;5.38;;;1.40;;
16391;SDS011;8305;-33.882;151.134;2023-05-23T04:34:35;2.50;;;1.23;;
16391;SDS011;8305;-33.882;151.134;2023-05-23T04:37:06;5.13;;;1.38;;
16391;SDS011;8305;-33.882;151.134;2023-05-23T04:39:37;2.83;;;1.30;;
16391;SDS011;8305;-33.882;151.134;2023-05-23T04:42:08;8.55;;;1.90;;
16391;SDS011;8305;-33.882;151.134;2023-05-23T04:44:39;6.53;;;1.63;;
16391;SDS011;8305;-33.882;151.134;2023-05-23T04:47:12;5.82;;;1.70;;
16391;SDS011;8305;-33.882;151.134;2023-05-23T04:49:44;6.65;;;1.70;;
16391;SDS011;8305;-33.882;151.134;2023-05-23T04:52:15;7.40;;;1.58;;
16391;SDS011;8305;-33.882;151.134;2023-05-23T04:54:46;7.45;;;1.70;;
16391;SDS011;8305;-33.882;151.134;2023-05-23T04:57:19;7.35;;;1.60;;
16391;SDS011;8305;-33.882;151.134;2023-05-23T04:59:50;8.25;;;1.50;;
16391;SDS011;8305;-33.882;151.134;2023-05-23T05:02:24;5.43;;;1.70;;
16391;SDS011;8305;-33.882;151.134;2023-05-23T05:05:00;8.02;;;2.05;;
16391;SDS011;8305;-33.882;151.134;2023-05-23T05:07:31;6.40;;;1.60;;
16391;SDS011;8305;-33.882;151.134;2023-05-23T05:10:03;4.57;;;1.15;;
16391;SDS011;8305;-33.882;151.134;2023-05-23T05:12:36;3.85;;;1.60;;
16391;SDS011;8305;-33.882;151.134;2023-05-23T05:15:08;7.53;;;1.70;;
16391;SDS011;8305;-33.882;151.134;2023-05-23T05:17:41;6.20;;;1.63;;
16391;SDS011;8305;-33.882;151.134;2023-05-23T05:20:13;5.03;;;1.58;;
16391;SDS011;8305;-33.882;151.134;2023-05-23T05:22:44;6.05;;;1.30;;
16391;SDS011;8305;-33.882;151.134;2023-05-23T05:25:15;4.78;;;1.40;;
16391;SDS011;8305;-33.882;151.134;2023-05-23T05:27:46;9.18;;;1.75;;
16391;SDS011;8305;-33.882;151.134;2023-05-23T05:30:17;9.90;;;1.92;;
16391;SDS011;8305;-33.882;151.134;2023-05-23T05:32:52;5.45;;;1.50;;
16391;SDS011;8305;-33.882;151.134;2023-05-23T05:35:24;6.97;;;1.70;;
16391;SDS011;8305;-33.882;151.134;2023-05-23T05:37:55;11.45;;;1.98;;
16391;SDS011;8305;-33.882;151.134;2023-05-23T05:40:26;5.78;;;1.58;;
16391;SDS011;8305;-33.882;151.134;2023-05-23T05:42:57;6.38;;;1.73;;
16391;SDS011;8305;-33.882;151.134;2023-05-23T05:45:28;6.05;;;1.60;;
16391;SDS011;8305;-33.882;151.134;2023-05-23T05:48:01;5.75;;;1.48;;
16391;SDS011;8305;-33.882;151.134;2023-05-23T05:50:33;4.68;;;1.65;;
16391;SDS011;8305;-33.882;151.134;2023-05-23T05:53:04;4.40;;;1.40;;
16391;SDS011;8305;-33.882;151.134;2023-05-23T05:55:35;6.55;;;1.80;;
16391;SDS011;8305;-33.882;151.134;2023-05-23T05:58:06;6.78;;;1.60;;
16391;SDS011;8305;-33.882;151.134;2023-05-23T06:00:37;6.15;;;1.40;;
16391;SDS011;8305;-33.882;151.134;2023-05-23T06:03:11;7.95;;;1.85;;
16391;SDS011;8305;-33.882;151.134;2023-05-23T06:05:42;6.75;;;1.52;;
16391;SDS011;8305;-33.882;151.134;2023-05-23T06:08:13;7.72;;;2.00;;
16391;SDS011;8305;-33.882;151.134;2023-05-23T06:10:44;4.35;;;1.60;;
16391;SDS011;8305;-33.882;151.134;2023-05-23T06:13:15;6.25;;;1.67;;
16391;SDS011;8305;-33.882;151.134;2023-05-23T06:15:46;5.07;;;1.52;;
16391;SDS011;8305;-33.882;151.134;2023-05-23T06:18:19;6.85;;;1.80;;
16391;SDS011;8305;-33.882;151.134;2023-05-23T06:20:50;7.22;;;2.00;;
16391;SDS011;8305;-33.882;151.134;2023-05-23T06:23:21;9.32;;;1.90;;
16391;SDS011;8305;-33.882;151.134;2023-05-23T06:25:52;8.27;;;1.70;;
16391;SDS011;8305;-33.882;151.134;2023-05-23T06:28:24;7.90;;;1.70;;
16391;SDS011;8305;-33.882;151.134;2023-05-23T06:30:55;7.53;;;2.10;;
16391;SDS011;8305;-33.882;151.134;2023-05-23T06:33:28;5.82;;;2.00;;
16391;SDS011;8305;-33.882;151.134;2023-05-23T06:35:59;6.55;;;1.77;;
16391;SDS011;8305;-33.882;151.134;2023-05-23T06:38:30;4.97;;;2.05;;
16391;SDS011;8305;-33.882;151.134;2023-05-23T06:41:01;7.18;;;1.90;;
16391;SDS011;8305;-33.882;151.134;2023-05-23T06:43:33;8.07;;;2.47;;
16391;SDS011;8305;-33.882;151.134;2023-05-23T06:46:04;7.10;;;1.80;;
16391;SDS011;8305;-33.882;151.134;2023-05-23T06:48:37;4.85;;;1.40;;
16391;SDS011;8305;-33.882;151.134;2023-05-23T06:51:08;5.88;;;1.75;;
16391;SDS011;8305;-33.882;151.134;2023-05-23T06:53:39;8.90;;;2.00;;
16391;SDS011;8305;-33.882;151.134;2023-05-23T06:56:10;8.95;;;1.90;;
16391;SDS011;8305;-33.882;151.134;2023-05-23T06:58:41;5.55;;;1.70;;
16391;SDS011;8305;-33.882;151.134;2023-05-23T07:01:13;6.63;;;1.85;;
16391;SDS011;8305;-33.882;151.134;2023-05-23T07:03:46;8.98;;;1.70;;
16391;SDS011;8305;-33.882;151.134;2023-05-23T07:06:17;8.45;;;1.73;;
16391;SDS011;8305;-33.882;151.134;2023-05-23T07:08:48;3.95;;;1.40;;
16391;SDS011;8305;-33.882;151.134;2023-05-23T07:11:19;4.97;;;1.65;;
16391;SDS011;8305;-33.882;151.134;2023-05-23T07:13:51;7.13;;;1.80;;
16391;SDS011;8305;-33.882;151.134;2023-05-23T07:16:22;5.18;;;1.55;;
16391;SDS011;8305;-33.882;151.134;2023-05-23T07:18:55;6.07;;;1.90;;
16391;SDS011;8305;-33.882;151.134;2023-05-23T07:21:26;4.85;;;1.70;;
16391;SDS011;8305;-33.882;151.134;2023-05-23T07:23:57;5.90;;;1.60;;
16391;SDS011;8305;-33.882;151.134;2023-05-23T07:26:28;5.28;;;1.70;;
16391;SDS011;8305;-33.882;151.134;2023-05-23T07:29:00;6.00;;;1.85;;
16391;SDS011;8305;-33.882;151.134;2023-05-23T07:31:31;7.72;;;2.08;;
16391;SDS011;8305;-33.882;151.134;2023-05-23T07:34:04;7.38;;;1.83;;
16391;SDS011;8305;-33.882;151.134;2023-05-23T07:36:35;5.70;;;1.70;;
16391;SDS011;8305;-33.882;151.134;2023-05-23T07:39:06;6.07;;;1.77;;
16391;SDS011;8305;-33.882;151.134;2023-05-23T07:41:37;5.53;;;1.85;;
16391;SDS011;8305;-33.882;151.134;2023-05-23T07:44:08;7.65;;;2.10;;
16391;SDS011;8305;-33.882;151.134;2023-05-23T07:46:39;6.63;;;1.83;;
16391;SDS011;8305;-33.882;151.134;2023-05-23T07:49:12;6.40;;;2.05;;
16391;SDS011;8305;-33.882;151.134;2023-05-23T07:51:44;7.72;;;2.03;;
16391;SDS011;8305;-33.882;151.134;2023-05-23T07:54:15;8.52;;;2.60;;
16391;SDS011;8305;-33.882;151.134;2023-05-23T07:56:46;9.07;;;2.78;;
16391;SDS011;8305;-33.882;151.134;2023-05-23T07:59:17;6.03;;;2.10;;
16391;SDS011;8305;-33.882;151.134;2023-05-23T08:01:48;7.18;;;2.22;;
16391;SDS011;8305;-33.882;151.134;2023-05-23T08:04:21;7.90;;;2.25;;
16391;SDS011;8305;-33.882;151.134;2023-05-23T08:06:52;8.20;;;2.53;;
16391;SDS011;8305;-33.882;151.134;2023-05-23T08:09:23;5.85;;;2.38;;
16391;SDS011;8305;-33.882;151.134;2023-05-23T08:11:55;5.95;;;2.30;;
16391;SDS011;8305;-33.882;151.134;2023-05-23T08:14:26;7.28;;;2.40;;
16391;SDS011;8305;-33.882;151.134;2023-05-23T08:16:57;8.02;;;2.60;;
16391;SDS011;8305;-33.882;151.134;2023-05-23T08:19:30;10.00;;;2.90;;
16391;SDS011;8305;-33.882;151.134;2023-05-23T08:22:01;7.50;;;3.05;;
16391;SDS011;8305;-33.882;151.134;2023-05-23T08:24:32;8.88;;;3.30;;
16391;SDS011;8305;-33.882;151.134;2023-05-23T08:27:04;8.98;;;3.53;;
16391;SDS011;8305;-33.882;151.134;2023-05-23T08:29:35;8.48;;;3.90;;
16391;SDS011;8305;-33.882;151.134;2023-05-23T08:32:06;9.48;;;3.88;;
16391;SDS011;8305;-33.882;151.134;2023-05-23T08:34:39;10.52;;;4.05;;
16391;SDS011;8305;-33.882;151.134;2023-05-23T08:37:10;11.85;;;3.70;;
16391;SDS011;8305;-33.882;151.134;2023-05-23T08:39:41;8.57;;;3.40;;
16391;SDS011;8305;-33.882;151.134;2023-05-23T08:42:12;8.73;;;3.45;;
16391;SDS011;8305;-33.882;151.134;2023-05-23T08:44:43;9.27;;;3.40;;
16391;SDS011;8305;-33.882;151.134;2023-05-23T08:47:15;14.82;;;4.03;;
16391;SDS011;8305;-33.882;151.134;2023-05-23T08:49:49;12.05;;;3.97;;
16391;SDS011;8305;-33.882;151.134;2023-05-23T08:52:23;7.78;;;3.55;;
16391;SDS011;8305;-33.882;151.134;2023-05-23T08:54:55;12.82;;;4.00;;
16391;SDS011;8305;-33.882;151.134;2023-05-23T08:57:27;13.98;;;4.68;;
16391;SDS011;8305;-33.882;151.134;2023-05-23T08:59:59;16.27;;;4.18;;
16391;SDS011;8305;-33.882;151.134;2023-05-23T09:02:36;13.52;;;5.03;;
16391;SDS011;8305;-33.882;151.134;2023-05-23T09:05:10;12.02;;;4.45;;
16391;SDS011;8305;-33.882;151.134;2023-05-23T09:07:41;13.30;;;4.80;;
16391;SDS011;8305;-33.882;151.134;2023-05-23T09:10:14;12.98;;;4.93;;
16391;SDS011;8305;-33.882;151.134;2023-05-23T09:12:45;15.23;;;4.97;;
16391;SDS011;8305;-33.882;151.134;2023-05-23T09:15:17;19.13;;;5.80;;
16391;SDS011;8305;-33.882;151.134;2023-05-23T09:17:49;13.55;;;5.15;;
16391;SDS011;8305;-33.882;151.134;2023-05-23T09:20:22;15.50;;;5.63;;
16391;SDS011;8305;-33.882;151.134;2023-05-23T09:22:53;19.40;;;6.53;;
16391;SDS011;8305;-33.882;151.134;2023-05-23T09:25:24;16.58;;;6.03;;
16391;SDS011;8305;-33.882;151.134;2023-05-23T09:27:55;21.65;;;7.53;;
16391;SDS011;8305;-33.882;151.134;2023-05-23T09:30:27;23.80;;;8.18;;
16391;SDS011;8305;-33.882;151.134;2023-05-23T09:33:02;23.40;;;7.47;;
16391;SDS011;8305;-33.882;151.134;2023-05-23T09:35:35;21.73;;;7.55;;
16391;SDS011;8305;-33.882;151.134;2023-05-23T09:38:12;22.75;;;7.38;;
16391;SDS011;8305;-33.882;151.134;2023-05-23T09:40:44;22.00;;;7.05;;
16391;SDS011;8305;-33.882;151.134;2023-05-23T09:43:15;21.92;;;7.50;;
16391;SDS011;8305;-33.882;151.134;2023-05-23T09:45:47;24.48;;;7.70;;
16391;SDS011;8305;-33.882;151.134;2023-05-23T09:48:18;21.75;;;7.88;;
16391;SDS011;8305;-33.882;151.134;2023-05-23T09:50:58;19.92;;;6.95;;
16391;SDS011;8305;-33.882;151.134;2023-05-23T09:53:31;25.00;;;7.32;;
16391;SDS011;8305;-33.882;151.134;2023-05-23T09:56:03;19.63;;;6.93;;
16391;SDS011;8305;-33.882;151.134;2023-05-23T09:58:36;19.27;;;6.20;;
16391;SDS011;8305;-33.882;151.134;2023-05-23T10:01:08;15.75;;;5.55;;
16391;SDS011;8305;-33.882;151.134;2023-05-23T10:03:43;15.15;;;5.38;;
16391;SDS011;8305;-33.882;151.134;2023-05-23T10:06:22;13.35;;;6.38;;
16391;SDS011;8305;-33.882;151.134;2023-05-23T10:08:56;15.52;;;5.93;;
16391;SDS011;8305;-33.882;151.134;2023-05-23T10:14:39;20.65;;;6.90;;
16391;SDS011;8305;-33.882;151.134;2023-05-23T10:17:17;12.90;;;5.55;;
16391;SDS011;8305;-33.882;151.134;2023-05-23T10:19:50;14.65;;;5.80;;
16391;SDS011;8305;-33.882;151.134;2023-05-23T10:22:28;15.10;;;6.10;;
16391;SDS011;8305;-33.882;151.134;2023-05-23T10:24:59;13.90;;;6.30;;
16391;SDS011;8305;-33.882;151.134;2023-05-23T10:27:31;14.85;;;5.85;;
16391;SDS011;8305;-33.882;151.134;2023-05-23T10:30:03;17.02;;;6.03;;
16391;SDS011;8305;-33.882;151.134;2023-05-23T10:32:38;15.85;;;5.80;;
16391;SDS011;8305;-33.882;151.134;2023-05-23T10:35:11;17.10;;;6.25;;
16391;SDS011;8305;-33.882;151.134;2023-05-23T10:37:51;16.13;;;5.55;;
16391;SDS011;8305;-33.882;151.134;2023-05-23T10:40:32;12.52;;;5.78;;
16391;SDS011;8305;-33.882;151.134;2023-05-23T10:43:12;12.77;;;6.07;;
16391;SDS011;8305;-33.882;151.134;2023-05-23T10:45:51;14.65;;;6.05;;
16391;SDS011;8305;-33.882;151.134;2023-05-23T10:48:30;17.42;;;6.50;;
16391;SDS011;8305;-33.882;151.134;2023-05-23T10:51:03;14.45;;;6.28;;
16391;SDS011;8305;-33.882;151.134;2023-05-23T10:53:37;13.07;;;6.22;;
16391;SDS011;8305;-33.882;151.134;2023-05-23T10:56:09;14.38;;;5.97;;
16391;SDS011;8305;-33.882;151.134;2023-05-23T10:58:51;17.52;;;6.35;;
16391;SDS011;8305;-33.882;151.134;2023-05-23T11:01:23;16.45;;;6.90;;
16391;SDS011;8305;-33.882;151.134;2023-05-23T11:03:55;12.48;;;5.90;;
16391;SDS011;8305;-33.882;151.134;2023-05-23T11:06:29;15.45;;;6.93;;
16391;SDS011;8305;-33.882;151.134;2023-05-23T11:09:08;18.75;;;7.35;;
16391;SDS011;8305;-33.882;151.134;2023-05-23T11:11:51;18.02;;;7.20;;
16391;SDS011;8305;-33.882;151.134;2023-05-23T11:17:31;16.83;;;7.40;;
16391;SDS011;8305;-33.882;151.134;2023-05-23T11:20:03;14.20;;;6.82;;
16391;SDS011;8305;-33.882;151.134;2023-05-23T11:22:35;17.80;;;6.97;;
16391;SDS011;8305;-33.882;151.134;2023-05-23T11:25:09;18.17;;;7.90;;
16391;SDS011;8305;-33.882;151.134;2023-05-23T11:27:44;19.83;;;7.50;;
16391;SDS011;8305;-33.882;151.134;2023-05-23T11:30:17;19.00;;;7.10;;
16391;SDS011;8305;-33.882;151.134;2023-05-23T11:32:49;22.67;;;7.20;;
16391;SDS011;8305;-33.882;151.134;2023-05-23T11:35:21;18.33;;;7.68;;
16391;SDS011;8305;-33.882;151.134;2023-05-23T11:37:54;15.95;;;7.03;;
16391;SDS011;8305;-33.882;151.134;2023-05-23T11:40:29;16.17;;;6.95;;
16391;SDS011;8305;-33.882;151.134;2023-05-23T11:43:02;16.58;;;6.93;;
16391;SDS011;8305;-33.882;151.134;2023-05-23T11:45:36;14.75;;;6.30;;
16391;SDS011;8305;-33.882;151.134;2023-05-23T11:48:08;15.20;;;6.57;;
16391;SDS011;8305;-33.882;151.134;2023-05-23T11:50:43;21.77;;;7.45;;
16391;SDS011;8305;-33.882;151.134;2023-05-23T11:53:15;15.68;;;7.00;;
16391;SDS011;8305;-33.882;151.134;2023-05-23T11:55:50;18.63;;;7.70;;
16391;SDS011;8305;-33.882;151.134;2023-05-23T11:58:25;16.10;;;6.75;;
16391;SDS011;8305;-33.882;151.134;2023-05-23T12:01:00;17.27;;;7.00;;
16391;SDS011;8305;-33.882;151.134;2023-05-23T12:03:32;16.20;;;7.05;;
16391;SDS011;8305;-33.882;151.134;2023-05-23T12:06:03;15.75;;;7.28;;
16391;SDS011;8305;-33.882;151.134;2023-05-23T12:08:35;15.52;;;6.78;;
16391;SDS011;8305;-33.882;151.134;2023-05-23T12:11:08;18.60;;;7.50;;
16391;SDS011;8305;-33.882;151.134;2023-05-23T12:13:39;16.13;;;7.03;;
16391;SDS011;8305;-33.882;151.134;2023-05-23T12:16:12;17.75;;;7.03;;
16391;SDS011;8305;-33.882;151.134;2023-05-23T12:18:43;15.25;;;6.65;;
16391;SDS011;8305;-33.882;151.134;2023-05-23T12:21:14;15.55;;;6.82;;
16391;SDS011;8305;-33.882;151.134;2023-05-23T12:23:46;18.42;;;7.13;;
16391;SDS011;8305;-33.882;151.134;2023-05-23T12:26:19;13.75;;;6.47;;
16391;SDS011;8305;-33.882;151.134;2023-05-23T12:28:50;16.38;;;6.75;;
16391;SDS011;8305;-33.882;151.134;2023-05-23T12:31:21;14.65;;;6.70;;
16391;SDS011;8305;-33.882;151.134;2023-05-23T12:33:53;14.10;;;6.90;;
16391;SDS011;8305;-33.882;151.134;2023-05-23T12:36:25;21.73;;;7.80;;
16391;SDS011;8305;-33.882;151.134;2023-05-23T12:39:01;14.30;;;7.70;;
16391;SDS011;8305;-33.882;151.134;2023-05-23T12:41:37;14.48;;;7.40;;
16391;SDS011;8305;-33.882;151.134;2023-05-23T12:44:14;16.10;;;7.95;;
16391;SDS011;8305;-33.882;151.134;2023-05-23T12:46:46;15.90;;;7.95;;
16391;SDS011;8305;-33.882;151.134;2023-05-23T12:49:17;13.27;;;7.93;;
16391;SDS011;8305;-33.882;151.134;2023-05-23T12:51:48;19.73;;;9.00;;
16391;SDS011;8305;-33.882;151.134;2023-05-23T12:54:19;18.67;;;8.90;;
16391;SDS011;8305;-33.882;151.134;2023-05-23T12:56:52;17.35;;;8.85;;
16391;SDS011;8305;-33.882;151.134;2023-05-23T12:59:23;19.17;;;8.30;;
16391;SDS011;8305;-33.882;151.134;2023-05-23T13:01:54;18.27;;;9.05;;
16391;SDS011;8305;-33.882;151.134;2023-05-23T13:04:26;15.88;;;8.40;;
16391;SDS011;8305;-33.882;151.134;2023-05-23T13:06:57;22.75;;;8.45;;
16391;SDS011;8305;-33.882;151.134;2023-05-23T13:09:28;15.43;;;8.30;;
16391;SDS011;8305;-33.882;151.134;2023-05-23T13:12:01;23.58;;;8.60;;
16391;SDS011;8305;-33.882;151.134;2023-05-23T13:14:33;17.15;;;8.20;;
16391;SDS011;8305;-33.882;151.134;2023-05-23T13:17:04;18.95;;;8.40;;
16391;SDS011;8305;-33.882;151.134;2023-05-23T13:19:35;21.20;;;8.25;;
16391;SDS011;8305;-33.882;151.134;2023-05-23T13:22:06;17.45;;;7.95;;
16391;SDS011;8305;-33.882;151.134;2023-05-23T13:24:38;19.58;;;8.48;;
16391;SDS011;8305;-33.882;151.134;2023-05-23T13:27:11;23.20;;;9.30;;
16391;SDS011;8305;-33.882;151.134;2023-05-23T13:29:42;18.42;;;8.50;;
16391;SDS011;8305;-33.882;151.134;2023-05-23T13:32:13;24.23;;;8.70;;
16391;SDS011;8305;-33.882;151.134;2023-05-23T13:34:44;20.50;;;8.82;;
16391;SDS011;8305;-33.882;151.134;2023-05-23T13:37:15;18.67;;;8.77;;
16391;SDS011;8305;-33.882;151.134;2023-05-23T13:39:46;19.17;;;8.55;;
16391;SDS011;8305;-33.882;151.134;2023-05-23T13:42:19;20.23;;;9.20;;
16391;SDS011;8305;-33.882;151.134;2023-05-23T13:44:51;21.70;;;8.93;;
16391;SDS011;8305;-33.882;151.134;2023-05-23T13:47:22;19.77;;;8.32;;
16391;SDS011;8305;-33.882;151.134;2023-05-23T13:49:53;21.60;;;9.35;;
16391;SDS011;8305;-33.882;151.134;2023-05-23T13:52:24;21.45;;;9.30;;
16391;SDS011;8305;-33.882;151.134;2023-05-23T13:54:55;16.42;;;8.50;;
16391;SDS011;8305;-33.882;151.134;2023-05-23T13:57:28;20.13;;;9.00;;
16391;SDS011;8305;-33.882;151.134;2023-05-23T13:59:59;26.35;;;9.77;;
16391;SDS011;8305;-33.882;151.134;2023-05-23T14:02:31;19.65;;;9.45;;
16391;SDS011;8305;-33.882;151.134;2023-05-23T14:05:02;20.63;;;9.63;;
16391;SDS011;8305;-33.882;151.134;2023-05-23T14:07:33;21.17;;;9.25;;
16391;SDS011;8305;-33.882;151.134;2023-05-23T14:10:05;17.30;;;9.23;;
16391;SDS011;8305;-33.882;151.134;2023-05-23T14:12:39;24.88;;;9.93;;
16391;SDS011;8305;-33.882;151.134;2023-05-23T14:15:10;21.77;;;9.93;;
16391;SDS011;8305;-33.882;151.134;2023-05-23T14:17:41;18.63;;;8.93;;
16391;SDS011;8305;-33.882;151.134;2023-05-23T14:20:13;18.83;;;9.30;;
16391;SDS011;8305;-33.882;151.134;2023-05-23T14:22:44;19.70;;;9.40;;
16391;SDS011;8305;-33.882;151.134;2023-05-23T14:25:15;22.52;;;9.23;;
16391;SDS011;8305;-33.882;151.134;2023-05-23T14:27:48;23.40;;;9.60;;
16391;SDS011;8305;-33.882;151.134;2023-05-23T14:30:19;17.10;;;8.40;;
16391;SDS011;8305;-33.882;151.134;2023-05-23T14:32:50;20.40;;;9.13;;
16391;SDS011;8305;-33.882;151.134;2023-05-23T14:35:21;18.55;;;9.00;;
16391;SDS011;8305;-33.882;151.134;2023-05-23T14:37:54;18.85;;;8.50;;
16391;SDS011;8305;-33.882;151.134;2023-05-23T14:40:25;20.70;;;9.10;;
16391;SDS011;8305;-33.882;151.134;2023-05-23T14:42:58;19.45;;;9.07;;
16391;SDS011;8305;-33.882;151.134;2023-05-23T14:45:30;17.00;;;8.20;;
16391;SDS011;8305;-33.882;151.134;2023-05-23T14:48:01;17.80;;;8.77;;
16391;SDS011;8305;-33.882;151.134;2023-05-23T14:50:33;18.90;;;8.43;;
16391;SDS011;8305;-33.882;151.134;2023-05-23T14:53:04;18.30;;;8.50;;